createdAt,value
2018-05-21T00:01:46.806Z,15.80
2018-05-21T00:04:14.880Z,15.70
2018-05-21T00:06:42.934Z,15.70
2018-05-21T00:09:12.233Z,15.60
2018-05-21T00:11:40.300Z,15.60
2018-05-21T00:14:08.336Z,15.60
2018-05-21T00:16:36.397Z,15.50
2018-05-21T00:19:04.475Z,15.50
2018-05-21T00:21:33.547Z,15.40
2018-05-21T00:24:01.588Z,15.40
2018-05-21T00:26:29.674Z,15.40
2018-05-21T00:28:57.735Z,15.40
2018-05-21T00:31:25.800Z,15.30
2018-05-21T00:33:53.868Z,15.30
2018-05-21T00:36:21.910Z,15.30
2018-05-21T00:38:50.002Z,15.20
2018-05-21T00:41:18.106Z,15.20
2018-05-21T00:43:46.208Z,15.20
2018-05-21T00:46:14.304Z,15.10
2018-05-21T00:48:42.365Z,15.10
2018-05-21T00:51:10.463Z,15.10
2018-05-21T00:53:38.548Z,15.10
2018-05-21T00:56:06.637Z,15.00
2018-05-21T00:58:36.574Z,15.00
2018-05-21T01:01:05.425Z,14.90
2018-05-21T01:03:33.476Z,14.90
2018-05-21T01:06:01.521Z,14.90
2018-05-21T01:08:30.359Z,14.90
2018-05-21T01:10:58.393Z,17.60
2018-05-21T01:13:26.492Z,14.80
2018-05-21T01:15:55.665Z,14.70
2018-05-21T01:18:23.779Z,14.70
2018-05-21T01:20:51.834Z,14.70
2018-05-21T01:23:19.974Z,14.70
2018-05-21T01:25:49.488Z,14.60
2018-05-21T01:28:17.566Z,14.60
2018-05-21T01:30:45.626Z,14.60
2018-05-21T01:33:13.686Z,14.50
2018-05-21T01:35:41.741Z,14.50
2018-05-21T01:38:09.788Z,14.50
2018-05-21T01:40:37.863Z,14.40
2018-05-21T01:43:05.953Z,14.40
2018-05-21T01:45:34.783Z,14.40
2018-05-21T01:48:02.840Z,14.30
2018-05-21T01:50:30.913Z,14.30
2018-05-21T01:52:58.963Z,14.30
2018-05-21T01:55:27.047Z,14.20
2018-05-21T01:57:55.116Z,14.20
2018-05-21T02:00:23.186Z,14.20
2018-05-21T02:02:51.264Z,14.10
2018-05-21T02:05:19.305Z,14.10
2018-05-21T02:07:48.556Z,14.10
2018-05-21T02:10:16.646Z,14.00
2018-05-21T02:12:44.711Z,14.00
2018-05-21T02:15:13.309Z,14.00
2018-05-21T02:17:41.373Z,13.90
2018-05-21T02:20:09.467Z,13.90
2018-05-21T02:22:37.490Z,13.80
2018-05-21T02:25:05.534Z,13.80
2018-05-21T02:27:33.603Z,13.80
2018-05-21T02:30:02.437Z,13.80
2018-05-21T02:32:30.495Z,13.80
2018-05-21T02:34:59.300Z,13.80
2018-05-21T02:37:27.359Z,13.80
2018-05-21T02:39:55.417Z,13.80
2018-05-21T02:42:23.480Z,13.70
2018-05-21T02:44:51.551Z,13.70
2018-05-21T02:47:19.590Z,13.70
2018-05-21T02:49:48.447Z,13.70
2018-05-21T02:52:16.506Z,13.60
2018-05-21T02:54:44.605Z,13.60
2018-05-21T02:57:12.642Z,13.60
2018-05-21T02:59:40.706Z,13.50
2018-05-21T03:02:08.756Z,13.50
2018-05-21T03:04:36.827Z,13.50
2018-05-21T03:07:04.900Z,13.40
2018-05-21T03:09:33.695Z,13.40
2018-05-21T03:12:02.516Z,13.40
2018-05-21T03:14:30.573Z,13.40
2018-05-21T03:16:58.627Z,13.40
2018-05-21T03:19:27.830Z,13.40
2018-05-21T03:21:55.925Z,13.40
2018-05-21T03:24:24.736Z,13.30
2018-05-21T03:26:52.768Z,13.30
2018-05-21T03:29:20.818Z,13.30
2018-05-21T03:31:48.864Z,13.30
2018-05-21T03:34:17.690Z,13.30
2018-05-21T03:36:45.777Z,13.30
2018-05-21T03:39:13.825Z,13.30
2018-05-21T03:41:41.893Z,13.20
2018-05-21T03:44:09.971Z,13.20
2018-05-21T03:46:39.518Z,13.20
2018-05-21T03:49:07.534Z,13.20
2018-05-21T03:51:35.592Z,13.20
2018-05-21T03:54:04.395Z,13.20
2018-05-21T03:56:32.473Z,13.20
2018-05-21T03:59:13.005Z,13.20
2018-05-21T04:01:52.936Z,13.20
2018-05-21T04:04:20.997Z,13.20
2018-05-21T04:06:49.035Z,13.20
2018-05-21T04:09:17.094Z,13.20
2018-05-21T04:11:45.153Z,13.20
2018-05-21T04:14:13.974Z,13.20
2018-05-21T04:16:42.035Z,13.30
2018-05-21T04:19:10.095Z,13.30
2018-05-21T04:21:38.137Z,13.30
2018-05-21T04:24:06.245Z,13.40
2018-05-21T04:26:34.283Z,13.40
2018-05-21T04:29:02.366Z,13.40
2018-05-21T04:31:31.168Z,13.50
2018-05-21T04:33:59.550Z,13.50
2018-05-21T04:36:27.664Z,13.50
2018-05-21T04:38:56.443Z,13.50
2018-05-21T04:41:24.510Z,13.50
2018-05-21T04:43:52.551Z,13.60
2018-05-21T04:46:20.606Z,13.60
2018-05-21T04:48:49.457Z,13.70
2018-05-21T04:51:17.535Z,13.70
2018-05-21T04:53:45.584Z,13.80
2018-05-21T04:56:13.635Z,13.80
2018-05-21T04:58:41.725Z,13.80
2018-05-21T05:01:09.766Z,13.80
2018-05-21T05:03:38.582Z,13.90
2018-05-21T05:06:06.622Z,13.90
2018-05-21T05:08:35.453Z,14.00
2018-05-21T05:11:04.098Z,14.10
2018-05-21T05:13:32.323Z,14.00
2018-05-21T05:16:00.539Z,12.00
2018-05-21T05:18:28.601Z,14.10
2018-05-21T05:20:57.483Z,14.10
2018-05-21T05:23:25.484Z,14.10
2018-05-21T05:25:53.540Z,14.30
2018-05-21T05:28:21.628Z,15.30
2018-05-21T05:30:49.654Z,15.50
2018-05-21T05:33:17.697Z,18.60
2018-05-21T05:35:45.769Z,19.00
2018-05-21T05:38:13.841Z,20.60
2018-05-21T05:40:41.890Z,22.50
2018-05-21T05:43:09.991Z,22.60
2018-05-21T05:45:38.801Z,24.00
2018-05-21T05:48:06.856Z,24.90
2018-05-21T05:50:35.401Z,25.60
2018-05-21T05:53:03.494Z,26.30
2018-05-21T05:55:31.956Z,26.80
2018-05-21T05:58:00.046Z,27.30
2018-05-21T06:00:28.110Z,27.70
2018-05-21T06:02:56.255Z,28.20
2018-05-21T06:05:24.197Z,28.50
2018-05-21T06:07:52.265Z,28.50
2018-05-21T06:10:20.331Z,28.80
2018-05-21T06:12:48.403Z,28.90
2018-05-21T06:15:16.454Z,28.60
2018-05-21T06:17:44.501Z,28.70
2018-05-21T06:20:12.563Z,28.80
2018-05-21T06:22:40.627Z,28.80
2018-05-21T06:25:09.493Z,29.50
2018-05-21T06:27:37.538Z,29.50
2018-05-21T06:30:06.427Z,29.60
2018-05-21T06:32:34.455Z,30.20
2018-05-21T06:35:03.288Z,30.20
2018-05-21T06:37:31.360Z,30.10
2018-05-21T06:39:59.446Z,30.10
2018-05-21T06:42:27.453Z,29.90
2018-05-21T06:44:55.757Z,30.70
2018-05-21T06:47:23.749Z,31.40
2018-05-21T06:49:51.886Z,31.30
2018-05-21T06:52:19.959Z,31.50
2018-05-21T06:54:48.006Z,31.70
2018-05-21T06:57:16.826Z,31.80
2018-05-21T06:59:45.085Z,31.80
2018-05-21T07:02:13.032Z,31.70
2018-05-21T07:04:41.095Z,31.30
2018-05-21T07:07:09.130Z,31.80
2018-05-21T07:09:37.178Z,31.90
2018-05-21T07:12:05.231Z,32.10
2018-05-21T07:14:33.315Z,32.30
2018-05-21T07:17:01.376Z,32.60
2018-05-21T07:19:29.443Z,33.00
2018-05-21T07:21:58.261Z,33.80
2018-05-21T07:24:26.337Z,33.60
2018-05-21T07:26:54.385Z,34.10
2018-05-21T07:29:22.470Z,34.10
2018-05-21T07:31:50.526Z,34.00
2018-05-21T07:34:18.598Z,34.10
2018-05-21T07:36:46.665Z,34.10
2018-05-21T07:39:14.737Z,33.70
2018-05-21T07:41:43.206Z,33.70
2018-05-21T07:44:12.018Z,34.00
2018-05-21T07:46:40.059Z,33.80
2018-05-21T07:49:08.889Z,33.40
2018-05-21T07:51:36.952Z,33.40
2018-05-21T07:54:05.006Z,33.80
2018-05-21T07:56:33.043Z,34.80
2018-05-21T07:59:01.089Z,35.20
2018-05-21T08:01:29.165Z,35.20
2018-05-21T08:03:57.206Z,35.20
2018-05-21T08:06:25.290Z,35.10
2018-05-21T08:08:53.342Z,34.50
2018-05-21T08:11:21.412Z,34.50
2018-05-21T08:13:49.475Z,34.20
2018-05-21T08:16:18.530Z,34.50
2018-05-21T08:18:47.361Z,34.40
2018-05-21T08:21:16.204Z,34.80
2018-05-21T08:23:44.269Z,35.30
2018-05-21T08:26:12.307Z,35.80
2018-05-21T08:28:40.397Z,35.80
2018-05-21T08:31:08.833Z,35.80
2018-05-21T08:33:37.695Z,36.30
2018-05-21T08:36:05.790Z,36.30
2018-05-21T08:38:34.039Z,36.60
2018-05-21T08:41:02.130Z,36.60
2018-05-21T08:43:30.204Z,35.90
2018-05-21T08:45:59.026Z,36.60
2018-05-21T08:48:27.224Z,37.30
2018-05-21T08:50:55.262Z,36.50
2018-05-21T08:53:23.310Z,36.30
2018-05-21T08:55:52.116Z,35.90
2018-05-21T08:58:20.187Z,35.90
2018-05-21T09:00:48.250Z,36.80
2018-05-21T09:03:17.072Z,37.60
2018-05-21T09:05:45.120Z,37.00
2018-05-21T09:08:13.173Z,37.10
2018-05-21T09:10:41.984Z,37.70
2018-05-21T09:13:10.606Z,37.60
2018-05-21T09:15:38.650Z,37.20
2018-05-21T09:18:06.690Z,36.50
2018-05-21T09:20:36.161Z,36.90
2018-05-21T09:23:04.160Z,36.80
2018-05-21T09:25:32.210Z,36.30
2018-05-21T09:28:00.310Z,36.10
2018-05-21T09:30:28.356Z,35.90
2018-05-21T09:32:56.428Z,35.80
2018-05-21T09:35:24.496Z,36.40
2018-05-21T09:37:52.584Z,37.10
2018-05-21T09:40:20.641Z,37.40
2018-05-21T09:42:48.726Z,37.40
2018-05-21T09:45:17.599Z,37.80
2018-05-21T09:47:45.667Z,37.40
2018-05-21T09:50:13.741Z,37.60
2018-05-21T09:52:42.370Z,37.60
2018-05-21T09:55:10.435Z,38.30
2018-05-21T09:57:39.277Z,38.60
2018-05-21T10:00:07.350Z,38.60
2018-05-21T10:02:35.419Z,38.00
2018-05-21T10:05:03.498Z,38.00
2018-05-21T10:07:31.566Z,37.80
2018-05-21T10:09:59.626Z,37.40
2018-05-21T10:12:28.526Z,37.40
2018-05-21T10:14:56.589Z,38.30
2018-05-21T10:17:24.659Z,38.60
2018-05-21T10:19:52.721Z,38.30
2018-05-21T10:22:21.179Z,37.60
2018-05-21T10:24:49.260Z,37.20
2018-05-21T10:27:17.269Z,40.40
2018-05-21T10:29:45.353Z,36.50
2018-05-21T10:32:13.422Z,36.50
2018-05-21T10:34:41.470Z,36.30
2018-05-21T10:37:09.654Z,36.10
2018-05-21T10:39:37.608Z,36.10
2018-05-21T10:42:05.668Z,36.60
2018-05-21T10:44:33.730Z,36.00
2018-05-21T10:47:02.684Z,36.00
2018-05-21T10:49:30.774Z,35.60
2018-05-21T10:52:00.506Z,35.50
2018-05-21T10:54:28.555Z,35.50
2018-05-21T10:56:57.376Z,34.50
2018-05-21T10:59:25.475Z,34.30
2018-05-21T11:01:53.917Z,34.10
2018-05-21T11:04:21.966Z,33.70
2018-05-21T11:06:50.011Z,33.60
2018-05-21T11:09:18.047Z,33.60
2018-05-21T11:11:46.110Z,33.80
2018-05-21T11:14:14.173Z,33.30
2018-05-21T11:16:42.235Z,32.80
2018-05-21T11:19:11.202Z,32.00
2018-05-21T11:21:39.251Z,31.80
2018-05-21T11:24:07.346Z,31.80
2018-05-21T11:26:35.385Z,31.80
2018-05-21T11:29:03.486Z,32.20
2018-05-21T11:31:32.316Z,32.20
2018-05-21T11:34:00.794Z,32.10
2018-05-21T11:36:29.255Z,31.80
2018-05-21T11:38:57.311Z,31.60
2018-05-21T11:41:26.100Z,31.70
2018-05-21T11:43:54.294Z,31.90
2018-05-21T11:46:22.355Z,31.90
2018-05-21T11:48:50.405Z,31.60
2018-05-21T11:51:18.426Z,31.00
2018-05-21T11:53:46.485Z,30.90
2018-05-21T11:56:14.535Z,30.80
2018-05-21T11:58:43.362Z,30.30
2018-05-21T12:01:11.418Z,30.00
2018-05-21T12:03:41.116Z,29.80
2018-05-21T12:06:10.613Z,29.50
2018-05-21T12:08:39.657Z,29.40
2018-05-21T12:11:07.903Z,29.10
2018-05-21T12:13:36.294Z,28.80
2018-05-21T12:16:04.536Z,28.60
2018-05-21T12:21:02.859Z,28.70
2018-05-21T12:23:31.533Z,28.30
2018-05-21T12:25:59.610Z,28.20
2018-05-21T12:28:27.674Z,28.10
2018-05-21T12:30:55.719Z,27.80
2018-05-21T12:33:23.841Z,27.70
2018-05-21T12:35:51.897Z,27.50
2018-05-21T12:38:19.955Z,27.50
2018-05-21T12:40:48.448Z,27.40
2018-05-21T12:43:17.239Z,27.20
2018-05-21T12:45:45.302Z,27.20
2018-05-21T12:48:13.392Z,27.20
2018-05-21T12:50:41.492Z,27.30
2018-05-21T12:53:09.988Z,27.20
2018-05-21T12:55:38.095Z,26.90
2018-05-21T12:58:06.171Z,26.80
2018-05-21T13:00:34.248Z,26.80
2018-05-21T13:03:03.099Z,26.80
2018-05-21T13:05:31.147Z,26.80
2018-05-21T13:07:59.223Z,26.80
2018-05-21T13:10:30.844Z,26.60
2018-05-21T13:13:00.800Z,26.50
2018-05-21T13:15:29.665Z,26.40
2018-05-21T13:17:57.793Z,26.40
2018-05-21T13:20:28.565Z,26.40
2018-05-21T13:22:59.126Z,26.50
2018-05-21T13:25:28.468Z,26.50
2018-05-21T13:27:57.288Z,26.30
2018-05-21T13:30:26.678Z,26.20
2018-05-21T13:32:54.733Z,26.20
2018-05-21T13:35:22.808Z,26.00
2018-05-21T13:37:51.037Z,25.90
2018-05-21T13:40:19.102Z,25.70
2018-05-21T13:42:47.203Z,25.60
2018-05-21T13:45:16.038Z,25.60
2018-05-21T13:47:44.113Z,25.60
2018-05-21T13:50:12.155Z,25.60
2018-05-21T13:52:40.197Z,25.60
2018-05-21T13:55:08.388Z,25.70
2018-05-21T13:57:37.228Z,25.80
2018-05-21T14:00:05.356Z,25.80
2018-05-21T14:02:33.315Z,25.60
2018-05-21T14:05:01.782Z,25.50
2018-05-21T14:07:33.972Z,25.50
2018-05-21T14:10:02.733Z,25.60
2018-05-21T14:12:30.816Z,25.60
2018-05-21T14:14:58.886Z,25.50
2018-05-21T14:17:27.855Z,25.50
2018-05-21T14:19:56.911Z,25.40
2018-05-21T14:22:24.986Z,25.30
2018-05-21T14:24:53.035Z,25.30
2018-05-21T14:27:21.074Z,25.30
2018-05-21T14:29:50.255Z,25.30
2018-05-21T14:32:18.194Z,25.30
2018-05-21T14:34:46.370Z,25.40
2018-05-21T14:37:15.198Z,25.30
2018-05-21T14:39:43.219Z,25.30
2018-05-21T14:42:11.300Z,25.30
2018-05-21T14:44:39.486Z,25.30
2018-05-21T14:47:07.548Z,25.40
2018-05-21T14:49:35.600Z,25.30
2018-05-21T14:52:03.665Z,25.20
2018-05-21T14:54:32.559Z,25.00
2018-05-21T14:57:00.594Z,25.00
2018-05-21T14:59:28.667Z,25.00
2018-05-21T15:01:56.721Z,25.00
2018-05-21T15:04:24.776Z,25.10
2018-05-21T15:06:52.843Z,25.10
2018-05-21T15:09:20.943Z,25.20
2018-05-21T15:11:49.002Z,25.30
2018-05-21T15:14:17.061Z,25.20
2018-05-21T15:16:45.877Z,25.10
2018-05-21T15:19:13.996Z,25.10
2018-05-21T15:21:42.851Z,25.00
2018-05-21T15:24:10.914Z,25.00
2018-05-21T15:26:38.998Z,25.00
2018-05-21T15:29:07.080Z,25.00
2018-05-21T15:31:35.117Z,25.00
2018-05-21T15:34:04.078Z,25.00
2018-05-21T15:36:32.138Z,25.00
2018-05-21T15:39:00.215Z,24.90
2018-05-21T15:41:28.343Z,24.90
2018-05-21T15:43:56.436Z,24.80
2018-05-21T15:46:24.510Z,24.90
2018-05-21T15:48:52.671Z,24.90
2018-05-21T15:51:20.854Z,25.00
2018-05-21T15:53:49.033Z,25.10
2018-05-21T15:56:17.158Z,25.10
2018-05-21T15:58:45.425Z,25.00
2018-05-21T16:01:13.465Z,25.00
2018-05-21T16:03:41.584Z,25.00
2018-05-21T16:06:09.692Z,25.00
2018-05-21T16:08:38.637Z,25.00
2018-05-21T16:11:06.693Z,24.90
2018-05-21T16:13:34.773Z,24.90
2018-05-21T16:16:02.838Z,24.90
2018-05-21T16:18:30.899Z,24.80
2018-05-21T16:20:59.906Z,24.90
2018-05-21T16:23:27.986Z,24.90
2018-05-21T16:25:56.089Z,24.70
2018-05-21T16:28:24.160Z,24.70
2018-05-21T16:30:52.357Z,24.70
2018-05-21T16:33:21.952Z,24.80
2018-05-21T16:35:50.029Z,24.70
2018-05-21T16:38:20.149Z,24.70
2018-05-21T16:40:48.245Z,24.80
2018-05-21T16:43:17.202Z,24.90
2018-05-21T16:45:45.214Z,24.80
2018-05-21T16:48:14.013Z,24.70
2018-05-21T16:50:42.072Z,24.70
2018-05-21T16:53:10.131Z,24.70
2018-05-21T16:55:38.196Z,24.60
2018-05-21T16:58:07.005Z,24.50
2018-05-21T17:00:35.086Z,24.50
2018-05-21T17:03:03.140Z,24.40
2018-05-21T17:05:31.278Z,24.30
2018-05-21T17:08:00.002Z,24.30
2018-05-21T17:10:28.529Z,24.30
2018-05-21T17:12:57.342Z,24.20
2018-05-21T17:15:25.382Z,24.20
2018-05-21T17:17:53.483Z,24.10
2018-05-21T17:20:23.007Z,24.10
2018-05-21T17:22:51.029Z,24.00
2018-05-21T17:25:19.062Z,23.90
2018-05-21T17:27:47.102Z,23.90
2018-05-21T17:30:15.150Z,23.90
2018-05-21T17:32:43.203Z,24.00
2018-05-21T17:35:11.335Z,23.90
2018-05-21T17:37:40.113Z,23.90
2018-05-21T17:40:08.966Z,23.80
2018-05-21T17:42:36.986Z,23.80
2018-05-21T17:45:05.065Z,23.70
2018-05-21T17:47:33.136Z,23.60
2018-05-21T17:50:01.201Z,23.60
2018-05-21T17:52:29.282Z,23.50
2018-05-21T17:54:57.338Z,23.50
2018-05-21T17:57:25.597Z,23.50
2018-05-21T17:59:53.689Z,23.40
2018-05-21T18:02:21.740Z,23.40
2018-05-21T18:04:49.797Z,23.40
2018-05-21T18:07:17.911Z,23.40
2018-05-21T18:09:45.938Z,23.30
2018-05-21T18:12:14.005Z,23.30
2018-05-21T18:14:42.166Z,23.20
2018-05-21T18:17:10.161Z,23.20
2018-05-21T18:19:38.209Z,23.20
2018-05-21T18:22:06.266Z,23.10
2018-05-21T18:24:34.381Z,23.10
2018-05-21T18:27:02.450Z,23.10
2018-05-21T18:29:30.531Z,23.00
2018-05-21T18:31:58.610Z,22.90
2018-05-21T18:34:27.445Z,22.80
2018-05-21T18:36:55.524Z,22.80
2018-05-21T18:39:23.625Z,22.70
2018-05-21T18:41:51.699Z,22.70
2018-05-21T18:44:19.749Z,22.60
2018-05-21T18:46:48.347Z,22.60
2018-05-21T18:49:16.507Z,22.60
2018-05-21T18:51:44.566Z,22.50
2018-05-21T18:54:12.675Z,22.40
2018-05-21T18:56:42.237Z,22.40
2018-05-21T18:59:14.598Z,22.30
2018-05-21T19:01:43.437Z,22.20
2018-05-21T19:04:11.515Z,22.20
2018-05-21T19:06:39.573Z,22.20
2018-05-21T19:09:07.643Z,22.10
2018-05-21T19:11:36.445Z,22.10
2018-05-21T19:14:05.241Z,22.00
2018-05-21T19:16:35.186Z,22.00
2018-05-21T19:19:04.191Z,21.90
2018-05-21T19:21:32.297Z,21.80
2018-05-21T19:24:01.259Z,21.80
2018-05-21T19:26:29.356Z,21.70
2018-05-21T19:28:57.426Z,21.60
2018-05-21T19:31:25.593Z,21.60
2018-05-21T19:33:55.203Z,21.50
2018-05-21T19:36:24.679Z,21.50
2018-05-21T19:38:53.747Z,21.50
2018-05-21T19:41:25.349Z,21.40
2018-05-21T19:43:53.504Z,21.40
2018-05-21T19:46:21.642Z,21.30
2018-05-21T19:48:51.202Z,21.30
2018-05-21T19:51:20.160Z,21.20
2018-05-21T19:54:05.756Z,21.20
2018-05-21T19:56:34.128Z,21.10
2018-05-21T19:59:02.906Z,21.00
2018-05-21T20:01:30.941Z,21.00
2018-05-21T20:03:59.045Z,21.00
2018-05-21T20:06:28.274Z,21.00
2018-05-21T20:08:56.350Z,20.90
2018-05-21T20:11:24.381Z,20.90
2018-05-21T20:13:52.455Z,20.80
2018-05-21T20:16:20.542Z,20.70
2018-05-21T20:18:49.477Z,20.70
2018-05-21T20:21:19.012Z,20.60
2018-05-21T20:23:47.041Z,20.60
2018-05-21T20:26:15.071Z,20.50
2018-05-21T20:28:44.474Z,20.40
2018-05-21T20:31:13.303Z,20.40
2018-05-21T20:33:41.467Z,20.30
2018-05-21T20:36:09.514Z,20.30
2018-05-21T20:38:37.591Z,20.30
2018-05-21T20:41:05.660Z,20.20
2018-05-21T20:43:34.577Z,20.10
2018-05-21T20:46:02.637Z,20.10
2018-05-21T20:48:30.712Z,20.10
2018-05-21T20:50:58.865Z,20.00
2018-05-21T20:53:26.918Z,20.00
2018-05-21T20:55:54.993Z,19.90
2018-05-21T20:58:23.071Z,19.90
2018-05-21T21:00:51.536Z,19.80
2018-05-21T21:03:20.387Z,19.70
2018-05-21T21:05:49.147Z,19.70
2018-05-21T21:08:17.213Z,19.70
2018-05-21T21:10:45.332Z,19.70
2018-05-21T21:13:13.340Z,19.60
2018-05-21T21:15:42.141Z,19.50
2018-05-21T21:18:10.251Z,19.50
2018-05-21T21:20:38.250Z,19.50
2018-05-21T21:23:07.075Z,19.40
2018-05-21T21:25:35.522Z,19.40
2018-05-21T21:28:03.619Z,19.40
2018-05-21T21:30:33.241Z,19.30
2018-05-21T21:33:02.026Z,19.30
2018-05-21T21:35:30.088Z,19.30
2018-05-21T21:37:58.163Z,19.30
2018-05-21T21:40:26.189Z,19.20
2018-05-21T21:42:54.291Z,19.20
2018-05-21T21:45:23.111Z,19.10
2018-05-21T21:47:51.182Z,19.10
2018-05-21T21:50:19.238Z,19.10
2018-05-21T21:52:47.295Z,19.00
2018-05-21T21:55:15.342Z,19.00
2018-05-21T21:57:43.424Z,18.90
2018-05-21T22:00:11.508Z,18.80
2018-05-21T22:02:39.580Z,18.80
2018-05-21T22:05:07.599Z,18.80
2018-05-21T22:07:35.683Z,18.70
2018-05-21T22:10:03.732Z,18.70
2018-05-21T22:12:31.765Z,18.60
2018-05-21T22:15:00.599Z,18.60
2018-05-21T22:17:28.670Z,18.50
2018-05-21T22:19:56.697Z,18.50
2018-05-21T22:22:24.771Z,18.50
2018-05-21T22:24:52.820Z,18.40
2018-05-21T22:27:22.334Z,18.30
2018-05-21T22:29:51.164Z,18.30
2018-05-21T22:32:19.327Z,18.30
2018-05-21T22:34:47.365Z,18.30
2018-05-21T22:37:16.189Z,18.20
2018-05-21T22:39:44.247Z,18.10
2018-05-21T22:42:12.318Z,18.10
2018-05-21T22:44:42.150Z,18.10
2018-05-21T22:47:10.185Z,18.00
2018-05-21T22:49:40.001Z,18.00
2018-05-21T22:52:08.851Z,17.90
2018-05-21T22:54:36.897Z,17.90
2018-05-21T22:57:04.953Z,17.90
2018-05-21T22:59:33.000Z,17.80
2018-05-21T23:02:01.800Z,17.70
2018-05-21T23:04:29.853Z,17.70
2018-05-21T23:06:57.962Z,17.70
2018-05-21T23:09:26.050Z,17.70
2018-05-21T23:11:54.108Z,17.60
2018-05-21T23:14:22.216Z,17.60
2018-05-21T23:16:50.979Z,17.50
2018-05-21T23:19:19.027Z,17.50
2018-05-21T23:21:47.097Z,17.40
2018-05-21T23:24:15.134Z,17.50
2018-05-21T23:26:43.182Z,17.40
2018-05-21T23:29:11.305Z,17.30
2018-05-21T23:31:39.325Z,17.30
2018-05-21T23:34:07.451Z,17.30
2018-05-21T23:36:36.982Z,17.20
2018-05-21T23:39:05.908Z,17.20
2018-05-21T23:41:33.977Z,17.20
2018-05-21T23:44:02.018Z,17.20
2018-05-21T23:46:30.069Z,17.20
2018-05-21T23:48:58.138Z,17.10
2018-05-21T23:51:26.293Z,17.10
2018-05-21T23:53:54.313Z,17.00
2018-05-21T23:56:22.386Z,17.00
2018-05-21T23:58:50.425Z,17.00
